createdAt,value
2019-05-01T00:01:27.045Z,98552.11
2019-05-01T00:04:00.999Z,98556.89
2019-05-01T00:06:34.875Z,98564.00
2019-05-01T00:09:12.409Z,98562.38
2019-05-01T00:11:46.450Z,98564.86
2019-05-01T00:14:20.037Z,98567.53
2019-05-01T00:16:54.346Z,98568.91
2019-05-01T00:19:28.339Z,98569.37
2019-05-01T00:22:04.045Z,98569.09
2019-05-01T00:24:38.411Z,98580.80
2019-05-01T00:27:12.156Z,98580.46
2019-05-01T00:29:46.154Z,98578.81
2019-05-01T00:32:19.954Z,98578.62
2019-05-01T00:34:55.540Z,98585.19
2019-05-01T00:37:29.317Z,98584.83
2019-05-01T00:40:04.299Z,98584.13
2019-05-01T00:42:37.740Z,98584.94
2019-05-01T00:45:11.707Z,98592.19
2019-05-01T00:47:45.298Z,98599.30
2019-05-01T00:50:21.233Z,98593.09
2019-05-01T00:52:54.923Z,98596.99
2019-05-01T00:55:37.761Z,98607.83
2019-05-01T00:58:12.441Z,98594.83
2019-05-01T01:00:49.979Z,98601.41
2019-05-01T01:03:23.757Z,98606.50
2019-05-01T01:05:57.571Z,98613.03
2019-05-01T01:08:33.040Z,98610.89
2019-05-01T01:11:07.107Z,98606.75
2019-05-01T01:13:40.833Z,98609.19
2019-05-01T01:16:14.765Z,98617.45
2019-05-01T01:18:48.804Z,98615.13
2019-05-01T01:21:22.718Z,98616.42
2019-05-01T01:23:56.830Z,98613.89
2019-05-01T01:26:31.919Z,98617.84
2019-05-01T01:29:06.757Z,98609.09
2019-05-01T01:31:40.489Z,98614.45
2019-05-01T01:34:14.604Z,98617.52
2019-05-01T01:36:48.319Z,98618.72
2019-05-01T01:39:22.794Z,98618.72
2019-05-01T01:41:57.339Z,98622.22
2019-05-01T01:44:31.596Z,98621.98
2019-05-01T01:47:06.896Z,98628.02
2019-05-01T01:49:49.934Z,98620.94
2019-05-01T01:52:24.417Z,98615.35
2019-05-01T01:54:59.375Z,98616.30
2019-05-01T01:57:33.030Z,98622.89
2019-05-01T02:00:08.072Z,98620.06
2019-05-01T03:19:13.325Z,98580.35
2019-05-01T03:21:53.178Z,98595.88
2019-05-01T03:24:33.390Z,98592.89
2019-05-01T03:27:11.573Z,98594.27
2019-05-01T03:29:46.164Z,98577.65
2019-05-01T03:32:27.715Z,98586.70
2019-05-01T03:35:04.982Z,98574.19
2019-05-01T03:37:39.432Z,98582.45
2019-05-01T03:40:14.562Z,98578.28
2019-05-01T03:42:48.545Z,98568.86
2019-05-01T03:45:25.285Z,98571.52
2019-05-01T03:47:59.640Z,98556.02
2019-05-01T03:50:33.554Z,98555.77
2019-05-01T03:53:07.631Z,98555.30
2019-05-01T03:55:41.386Z,98550.61
2019-05-01T03:58:16.904Z,98558.72
2019-05-01T04:00:53.115Z,98559.11
2019-05-01T04:03:26.918Z,98554.16
2019-05-01T04:06:00.960Z,98559.22
2019-05-01T04:08:34.907Z,98550.88
2019-05-01T04:11:08.698Z,98550.88
2019-05-01T04:13:42.606Z,98531.14
2019-05-01T04:16:16.440Z,98544.20
2019-05-01T04:18:50.216Z,98550.91
2019-05-01T04:21:24.325Z,98538.63
2019-05-01T04:24:00.523Z,98551.55
2019-05-01T04:26:34.264Z,98563.73
2019-05-01T04:29:08.292Z,98536.58
2019-05-01T04:31:42.746Z,98537.79
2019-05-01T04:34:16.689Z,98532.22
2019-05-01T04:36:51.855Z,98554.30
2019-05-01T04:39:27.904Z,98539.38
2019-05-01T04:42:01.555Z,98528.90
2019-05-01T04:44:35.556Z,98541.40
2019-05-01T04:47:09.421Z,98532.51
2019-05-01T04:49:43.835Z,98537.97
2019-05-01T04:52:18.057Z,98541.94
2019-05-01T04:54:52.111Z,98536.59
2019-05-01T04:57:29.933Z,98556.17
2019-05-01T05:00:04.363Z,98535.67
2019-05-01T05:02:39.036Z,98517.93
2019-05-01T05:05:13.493Z,98516.17
2019-05-01T05:07:47.655Z,98512.87
2019-05-01T05:10:21.784Z,98520.89
2019-05-01T05:12:56.416Z,98529.06
2019-05-01T05:15:30.909Z,98531.20
2019-05-01T05:18:05.263Z,98525.36
2019-05-01T05:20:39.482Z,98519.19
2019-05-01T05:23:14.567Z,98514.31
2019-05-01T05:25:51.570Z,98502.92
2019-05-01T05:28:27.132Z,98509.20
2019-05-01T05:31:02.678Z,98503.95
2019-05-01T05:33:40.732Z,98512.55
2019-05-01T05:36:19.453Z,98505.44
2019-05-01T05:38:54.834Z,98502.12
2019-05-01T05:41:30.013Z,98505.95
2019-05-01T05:44:04.367Z,98486.65
2019-05-01T05:46:38.920Z,98474.20
2019-05-01T05:49:12.920Z,98486.28
2019-05-01T05:51:48.583Z,98485.45
2019-05-01T05:54:24.854Z,98480.11
2019-05-01T05:57:01.150Z,98477.16
2019-05-01T05:59:37.076Z,98469.34
2019-05-01T06:02:13.766Z,98464.14
2019-05-01T06:04:49.659Z,98453.89
2019-05-01T06:07:27.096Z,98462.66
2019-05-01T06:10:03.757Z,98465.89
2019-05-01T06:12:41.754Z,98471.11
2019-05-01T06:15:17.047Z,98464.91
2019-05-01T06:17:51.549Z,98463.40
2019-05-01T06:20:25.867Z,98459.91
2019-05-01T06:23:02.020Z,98461.09
2019-05-01T06:25:37.461Z,98453.72
2019-05-01T06:28:11.849Z,98459.94
2019-05-01T06:30:48.859Z,98450.83
2019-05-01T06:33:22.113Z,98457.92
2019-05-01T06:35:56.094Z,98455.94
2019-05-01T06:38:31.480Z,98446.84
2019-05-01T06:41:05.045Z,98438.78
2019-05-01T06:43:40.077Z,98443.30
2019-05-01T06:46:14.005Z,98435.20
2019-05-01T06:48:53.437Z,98436.25
2019-05-01T06:51:27.659Z,98422.02
2019-05-01T06:54:01.671Z,98435.50
2019-05-01T06:56:39.818Z,98439.75
2019-05-01T06:59:15.821Z,98440.05
2019-05-01T07:01:58.031Z,98445.48
2019-05-01T07:04:32.188Z,98430.69
2019-05-01T07:07:06.654Z,98427.08
2019-05-01T07:09:44.088Z,98426.32
2019-05-01T07:12:18.539Z,98426.32
2019-05-01T07:14:53.225Z,98425.55
2019-05-01T07:17:27.035Z,98418.17
2019-05-01T07:20:01.355Z,98420.73
2019-05-01T07:22:37.163Z,98421.54
2019-05-01T07:25:12.423Z,98425.14
2019-05-01T07:27:48.183Z,98431.98
2019-05-01T07:30:24.466Z,98431.98
2019-05-01T07:32:58.930Z,98426.99
2019-05-01T07:35:36.842Z,98425.23
2019-05-01T07:38:12.238Z,98429.19
2019-05-01T07:40:46.342Z,98435.71
2019-05-01T07:43:23.954Z,98418.89
2019-05-01T07:45:56.919Z,98419.27
2019-05-01T07:48:41.093Z,98428.38
2019-05-01T07:51:14.044Z,98432.41
2019-05-01T07:53:49.996Z,98418.45
2019-05-01T07:56:28.017Z,98423.13
2019-05-01T07:59:01.228Z,98421.17
2019-05-01T08:01:37.936Z,98428.34
2019-05-01T08:04:13.751Z,98427.36
2019-05-01T08:06:51.944Z,98429.89
2019-05-01T08:09:22.995Z,98417.14
2019-05-01T08:11:56.758Z,98428.95
2019-05-01T08:14:30.539Z,98423.75
2019-05-01T08:17:04.554Z,98412.79
2019-05-01T08:19:39.459Z,98418.31
2019-05-01T08:22:13.409Z,98411.89
2019-05-01T08:24:47.014Z,98413.00
2019-05-01T08:27:21.391Z,98406.23
2019-05-01T08:29:54.950Z,98420.63
2019-05-01T08:32:28.777Z,98416.52
2019-05-01T08:35:03.466Z,98417.81
2019-05-01T08:37:37.344Z,98405.46
2019-05-01T08:40:15.823Z,98411.34
2019-05-01T08:42:47.641Z,98400.66
2019-05-01T08:45:22.276Z,98409.56
2019-05-01T08:48:00.383Z,98425.14
2019-05-01T08:50:32.592Z,98420.03
2019-05-01T08:53:06.306Z,98408.69
2019-05-01T08:55:44.915Z,98397.53
2019-05-01T08:58:15.939Z,98408.80
2019-05-01T09:00:51.103Z,98404.78
2019-05-01T09:03:25.236Z,98410.82
2019-05-01T09:05:59.050Z,98415.62
2019-05-01T09:08:33.346Z,98416.53
2019-05-01T09:11:07.455Z,98415.02
2019-05-01T09:13:41.768Z,98405.59
2019-05-01T09:16:19.167Z,98405.86
2019-05-01T09:18:53.801Z,98397.83
2019-05-01T09:21:27.731Z,98407.22
2019-05-01T09:24:01.778Z,98409.08
2019-05-01T09:26:35.865Z,98401.13
2019-05-01T09:29:11.024Z,98407.44
2019-05-01T09:31:44.928Z,98407.95
2019-05-01T09:34:21.009Z,98398.52
2019-05-01T09:36:55.010Z,98401.61
2019-05-01T09:39:29.015Z,98404.27
2019-05-01T09:42:02.997Z,98407.13
2019-05-01T09:44:37.870Z,98396.57
2019-05-01T09:47:12.384Z,98403.56
2019-05-01T09:49:48.654Z,98401.28
2019-05-01T09:52:23.450Z,98398.28
2019-05-01T09:54:57.664Z,98399.33
2019-05-01T09:57:31.782Z,98399.22
2019-05-01T10:00:06.865Z,98411.50
2019-05-01T10:02:42.183Z,98398.73
2019-05-01T10:05:28.222Z,98400.70
2019-05-01T10:07:50.704Z,98401.75
2019-05-01T10:10:28.941Z,98404.71
2019-05-01T10:12:59.806Z,98409.08
2019-05-01T10:15:33.444Z,98415.16
2019-05-01T10:18:07.593Z,98423.90
2019-05-01T10:20:42.364Z,98414.58
2019-05-01T10:23:17.319Z,98414.75
2019-05-01T10:25:51.252Z,98409.36
2019-05-01T10:28:25.191Z,98416.24
2019-05-01T10:30:59.176Z,98417.80
2019-05-01T10:33:33.821Z,98409.98
2019-05-01T10:36:08.023Z,98414.48
2019-05-01T10:38:45.124Z,98410.58
2019-05-01T10:41:19.647Z,98407.64
2019-05-01T10:43:53.464Z,98407.05
2019-05-01T10:46:27.049Z,98407.84
2019-05-01T10:49:01.044Z,98414.78
2019-05-01T10:51:35.977Z,98404.22
2019-05-01T10:54:09.587Z,98410.08
2019-05-01T10:56:44.478Z,98402.78
2019-05-01T10:59:23.543Z,98406.52
2019-05-01T11:01:59.410Z,98406.50
2019-05-01T11:04:34.802Z,98410.47
2019-05-01T11:07:10.248Z,98413.09
2019-05-01T11:09:44.220Z,98410.74
2019-05-01T11:12:17.805Z,98410.74
2019-05-01T11:14:51.447Z,98415.55
2019-05-01T11:17:25.296Z,98414.45
2019-05-01T11:20:01.852Z,98419.05
2019-05-01T11:22:35.863Z,98414.09
2019-05-01T11:25:10.862Z,98419.00
2019-05-01T11:27:44.709Z,98420.38
2019-05-01T11:30:18.734Z,98423.05
2019-05-01T11:32:52.476Z,98412.87
2019-05-01T11:35:25.986Z,98421.13
2019-05-01T11:38:00.052Z,98428.41
2019-05-01T11:40:33.791Z,98432.47
2019-05-01T11:43:07.708Z,98434.12
2019-05-01T11:45:41.383Z,98423.37
2019-05-01T11:48:15.659Z,98426.56
2019-05-01T11:50:51.088Z,98430.72
2019-05-01T11:53:26.312Z,98428.18
2019-05-01T11:56:00.600Z,98442.80
2019-05-01T11:58:34.648Z,98441.48
2019-05-01T12:01:08.475Z,98442.21
2019-05-01T12:03:53.969Z,98436.84
2019-05-01T12:06:27.875Z,98441.89
2019-05-01T12:09:01.846Z,98439.39
2019-05-01T12:11:35.672Z,98444.30
2019-05-01T12:14:10.617Z,98447.20
2019-05-01T12:16:44.279Z,98443.38
2019-05-01T12:19:19.149Z,98442.63
2019-05-01T12:21:54.904Z,98442.16
2019-05-01T12:24:28.557Z,98438.67
2019-05-01T12:27:02.304Z,98445.87
2019-05-01T12:29:36.156Z,98447.63
2019-05-01T12:32:10.358Z,98444.72
2019-05-01T12:34:44.157Z,98439.60
2019-05-01T12:37:17.981Z,98437.17
2019-05-01T12:39:54.089Z,98434.52
2019-05-01T12:42:28.370Z,98436.86
2019-05-01T12:45:02.252Z,98439.23
2019-05-01T12:47:38.075Z,98440.69
2019-05-01T12:50:12.240Z,98441.70
2019-05-01T12:52:46.099Z,98444.75
2019-05-01T12:55:19.912Z,98448.63
2019-05-01T12:57:53.795Z,98444.09
2019-05-01T13:00:47.029Z,98440.85
2019-05-01T13:03:27.101Z,98441.05
2019-05-01T13:06:01.073Z,98432.87
2019-05-01T13:08:34.669Z,98437.13
2019-05-01T13:11:09.808Z,98433.78
2019-05-01T13:13:44.817Z,98439.59
2019-05-01T13:16:18.711Z,98435.06
2019-05-01T13:18:52.250Z,98434.34
2019-05-01T13:21:26.098Z,98424.11
2019-05-01T13:23:59.841Z,98431.61
2019-05-01T13:26:34.364Z,98428.98
2019-05-01T13:29:09.510Z,98426.50
2019-05-01T13:31:44.728Z,98423.26
2019-05-01T13:34:18.409Z,98427.84
2019-05-01T13:37:02.348Z,98421.05
2019-05-01T13:39:27.005Z,98427.19
2019-05-01T13:42:01.100Z,98432.58
2019-05-01T13:44:34.876Z,98426.41
2019-05-01T13:47:10.124Z,98436.22
2019-05-01T13:49:45.317Z,98430.48
2019-05-01T13:52:20.697Z,98428.53
2019-05-01T13:54:54.437Z,98428.23
2019-05-01T13:57:28.016Z,98428.53
2019-05-01T14:00:02.061Z,98431.87
2019-05-01T14:02:36.005Z,98422.77
2019-05-01T14:05:12.928Z,98420.03
2019-05-01T14:07:46.842Z,98424.13
2019-05-01T14:10:22.083Z,98422.94
2019-05-01T14:12:56.321Z,98428.39
2019-05-01T14:15:30.341Z,98417.97
2019-05-01T14:18:04.064Z,98419.08
2019-05-01T14:20:38.572Z,98412.25
2019-05-01T14:23:13.800Z,98414.38
2019-05-01T14:25:47.658Z,98412.20
2019-05-01T14:28:21.276Z,98409.07
2019-05-01T14:30:55.089Z,98405.28
2019-05-01T14:33:28.966Z,98409.69
2019-05-01T14:36:02.659Z,98413.88
2019-05-01T14:38:36.723Z,98408.09
2019-05-01T14:41:10.899Z,98401.06
2019-05-01T14:43:45.928Z,98409.34
2019-05-01T14:46:21.505Z,98408.58
2019-05-01T14:48:56.821Z,98402.51
2019-05-01T14:51:30.943Z,98406.17
2019-05-01T14:54:04.809Z,98402.25
2019-05-01T14:56:38.595Z,98399.87
2019-05-01T14:59:12.256Z,98399.62
2019-05-01T15:01:47.139Z,98389.23
2019-05-01T15:04:20.525Z,98402.13
2019-05-01T15:06:54.355Z,98403.11
2019-05-01T15:09:29.013Z,98399.62
2019-05-01T15:12:02.703Z,98393.55
2019-05-01T15:14:36.196Z,98390.92
2019-05-01T15:17:11.173Z,98394.30
2019-05-01T15:19:44.502Z,98390.01
2019-05-01T15:22:18.366Z,98400.26
2019-05-01T15:24:52.247Z,98394.59
2019-05-01T15:27:26.063Z,98393.30
2019-05-01T15:29:59.917Z,98395.59
2019-05-01T15:32:33.683Z,98389.18
2019-05-01T15:35:08.136Z,98394.30
2019-05-01T15:37:41.821Z,98396.84
2019-05-01T15:40:15.821Z,98396.45
2019-05-01T15:42:51.225Z,98393.24
2019-05-01T15:45:25.122Z,98385.47
2019-05-01T15:47:58.955Z,98377.29
2019-05-01T15:50:33.980Z,98384.80
2019-05-01T15:53:09.436Z,98380.22
2019-05-01T15:55:47.453Z,98377.75
2019-05-01T15:58:21.055Z,98372.33
2019-05-01T16:00:56.186Z,98372.95
2019-05-01T16:03:29.923Z,98367.29
2019-05-01T16:06:03.527Z,98367.70
2019-05-01T16:08:38.869Z,98360.19
2019-05-01T16:11:14.588Z,98359.23
2019-05-01T16:13:50.012Z,98362.21
2019-05-01T16:16:23.849Z,98352.50
2019-05-01T16:18:57.912Z,98356.56
2019-05-01T16:21:32.060Z,98337.91
2019-05-01T16:24:06.236Z,98337.91
2019-05-01T16:26:39.881Z,98352.91
2019-05-01T16:29:14.709Z,98347.58
2019-05-01T16:31:48.093Z,98340.90
2019-05-01T16:34:21.914Z,98341.67
2019-05-01T16:36:55.479Z,98345.95
2019-05-01T16:39:29.138Z,98344.19
2019-05-01T16:42:02.812Z,98340.16
2019-05-01T16:44:36.604Z,98337.46
2019-05-01T16:47:10.283Z,98329.10
2019-05-01T16:49:44.595Z,98326.82
2019-05-01T16:52:18.720Z,98323.83
2019-05-01T16:54:59.376Z,98323.47
2019-05-01T16:57:28.801Z,98324.64
2019-05-01T17:00:02.451Z,98314.91
2019-05-01T17:02:36.307Z,98317.02
2019-05-01T17:05:10.448Z,98306.21
2019-05-01T17:07:46.720Z,98314.80
2019-05-01T17:10:20.797Z,98303.77
2019-05-01T17:12:54.409Z,98302.25
2019-05-01T17:15:28.129Z,98295.70
2019-05-01T17:18:03.560Z,98290.02
2019-05-01T17:20:37.513Z,98283.31
2019-05-01T17:23:11.107Z,98284.97
2019-05-01T17:25:44.624Z,98274.61
2019-05-01T17:28:18.583Z,98266.35
2019-05-01T17:30:52.371Z,98266.66
2019-05-01T17:33:26.169Z,98260.43
2019-05-01T17:35:59.854Z,98260.94
2019-05-01T17:38:34.817Z,98248.63
2019-05-01T17:41:10.618Z,98243.52
2019-05-01T17:43:49.245Z,98237.73
2019-05-01T17:46:20.149Z,98233.27
2019-05-01T17:48:55.493Z,98236.11
2019-05-01T17:51:30.907Z,98229.16
2019-05-01T17:54:04.935Z,98224.25
2019-05-01T17:56:38.583Z,98219.43
2019-05-01T17:59:12.224Z,98216.36
2019-05-01T18:01:46.147Z,98211.03
2019-05-01T18:04:19.816Z,98207.61
2019-05-01T18:06:54.465Z,98198.48
2019-05-01T18:09:28.131Z,98198.08
2019-05-01T18:12:02.019Z,98190.36
2019-05-01T18:14:36.952Z,98188.14
2019-05-01T18:17:11.077Z,98187.92
2019-05-01T18:19:45.080Z,98181.72
2019-05-01T18:22:19.152Z,98182.41
2019-05-01T18:24:53.876Z,98182.05
2019-05-01T18:27:27.635Z,98182.72
2019-05-01T18:30:01.092Z,98176.64
2019-05-01T18:32:36.340Z,98178.06
2019-05-01T18:35:14.047Z,98171.12
2019-05-01T18:37:45.385Z,98169.70
2019-05-01T18:40:19.164Z,98167.14
2019-05-01T18:42:52.923Z,98170.07
2019-05-01T18:45:54.298Z,98166.34
2019-05-01T18:48:29.677Z,98156.72
2019-05-01T18:51:04.356Z,98162.91
2019-05-01T18:53:38.350Z,98155.41
2019-05-01T18:56:11.730Z,98149.70
2019-05-01T18:58:46.626Z,98153.05
2019-05-01T19:01:20.427Z,98152.03
2019-05-01T19:03:54.258Z,98150.52
2019-05-01T19:06:40.383Z,98145.52
2019-05-01T19:09:14.225Z,98129.83
2019-05-01T19:11:37.915Z,98130.21
2019-05-01T19:14:11.862Z,98121.64
2019-05-01T19:16:47.120Z,98128.29
2019-05-01T19:19:21.162Z,98125.14
2019-05-01T19:21:55.054Z,98128.94
2019-05-01T19:24:32.506Z,98125.33
2019-05-01T19:27:04.550Z,98125.57
2019-05-01T19:29:38.473Z,98122.28
2019-05-01T19:32:11.921Z,98120.81
2019-05-01T19:34:45.732Z,98115.20
2019-05-01T19:37:21.871Z,98111.17
2019-05-01T19:39:55.175Z,98108.28
2019-05-01T19:42:29.075Z,98106.50
2019-05-01T19:45:03.365Z,98102.33
2019-05-01T19:47:37.164Z,98099.81
2019-05-01T19:50:10.866Z,98095.47
2019-05-01T19:52:44.435Z,98091.30
2019-05-01T19:55:17.979Z,98090.98
2019-05-01T19:57:51.571Z,98082.59
2019-05-01T20:00:53.507Z,98087.50
2019-05-01T20:03:30.623Z,98078.17
2019-05-01T20:06:06.174Z,98077.69
2019-05-01T20:08:40.258Z,98068.99
2019-05-01T20:11:15.287Z,98063.77
2019-05-01T20:13:49.011Z,98062.97
2019-05-01T20:16:22.643Z,98064.59
2019-05-01T20:18:56.161Z,98057.58
2019-05-01T20:21:29.867Z,98064.56
2019-05-01T20:24:04.256Z,98063.86
2019-05-01T20:26:38.330Z,98057.50
2019-05-01T20:29:12.393Z,98062.48
2019-05-01T20:31:50.839Z,98057.50
2019-05-01T20:34:22.416Z,98059.11
2019-05-01T20:36:56.068Z,98051.70
2019-05-01T20:39:29.531Z,98057.08
2019-05-01T20:42:03.359Z,98060.70
2019-05-01T20:44:37.143Z,98049.52
2019-05-01T20:47:10.967Z,98045.50
2019-05-01T20:49:44.698Z,98052.91
2019-05-01T20:52:18.568Z,98050.98
2019-05-01T20:54:52.293Z,98051.36
2019-05-01T20:57:25.774Z,98056.52
2019-05-01T20:59:59.714Z,98053.08
2019-05-01T21:02:33.446Z,98053.08
2019-05-01T21:05:07.632Z,98056.59
2019-05-01T21:07:41.193Z,98061.18
2019-05-01T21:10:24.578Z,98057.56
2019-05-01T21:12:49.877Z,98053.78
2019-05-01T21:15:24.913Z,98055.88
2019-05-01T21:17:59.822Z,98063.52
2019-05-01T21:20:33.921Z,98068.10
2019-05-01T21:23:11.652Z,98068.59
2019-05-01T21:25:54.956Z,98075.19
2019-05-01T21:28:29.994Z,98075.08
2019-05-01T21:31:04.080Z,98076.45
2019-05-01T21:33:40.798Z,98087.70
2019-05-01T21:36:14.802Z,98091.00
2019-05-01T21:38:48.471Z,98087.95
2019-05-01T21:41:22.473Z,98086.18
2019-05-01T21:43:56.053Z,98087.80
2019-05-01T21:46:30.167Z,98087.89
2019-05-01T21:49:03.664Z,98085.10
2019-05-01T21:51:41.512Z,98094.77
2019-05-01T21:54:16.053Z,98099.92
2019-05-01T21:56:48.942Z,98095.82
2019-05-01T21:59:22.869Z,98101.75
2019-05-01T22:01:56.776Z,98094.33
2019-05-01T22:04:32.002Z,98091.38
2019-05-01T22:07:05.936Z,98092.90
2019-05-01T22:09:39.595Z,98099.92
2019-05-01T22:12:14.448Z,98096.84
2019-05-01T22:14:48.629Z,98106.62
2019-05-01T22:17:22.542Z,98120.55
2019-05-01T22:19:56.199Z,98121.30
2019-05-01T22:22:29.946Z,98125.88
2019-05-01T22:25:03.814Z,98125.88
2019-05-01T22:27:39.137Z,98137.39
2019-05-01T22:30:14.074Z,98148.70
2019-05-01T22:32:47.644Z,98156.57
2019-05-01T22:35:21.356Z,98143.13
2019-05-01T22:37:55.030Z,98157.61
2019-05-01T22:40:28.735Z,98174.28
2019-05-01T22:43:02.476Z,98167.70
2019-05-01T22:45:36.223Z,98162.95
2019-05-01T22:48:09.938Z,98194.62
2019-05-01T22:50:44.228Z,98191.16
2019-05-01T22:53:18.318Z,98196.30
2019-05-01T22:55:52.117Z,98191.98
2019-05-01T22:58:25.774Z,98199.39
2019-05-01T23:01:00.602Z,98204.56
2019-05-01T23:03:40.533Z,98203.27
2019-05-01T23:06:09.686Z,98205.20
2019-05-01T23:08:43.578Z,98201.69
2019-05-01T23:11:20.053Z,98201.69
2019-05-01T23:13:52.472Z,98208.05
2019-05-01T23:16:28.742Z,98205.36
2019-05-01T23:19:00.952Z,98214.94
2019-05-01T23:21:34.704Z,98224.49
2019-05-01T23:24:08.370Z,98224.58
2019-05-01T23:26:42.016Z,98227.77
2019-05-01T23:29:15.624Z,98231.09
2019-05-01T23:31:49.296Z,98231.39
2019-05-01T23:34:27.904Z,98236.82
2019-05-01T23:37:01.348Z,98253.69
2019-05-01T23:39:40.441Z,98247.25
2019-05-01T23:42:09.966Z,98247.29
2019-05-01T23:44:44.996Z,98255.66
2019-05-01T23:47:18.776Z,98250.23
2019-05-01T23:49:53.698Z,98253.30
2019-05-01T23:52:27.488Z,98258.58
2019-05-01T23:55:00.912Z,98261.66
2019-05-01T23:57:35.997Z,98266.09
